createdAt,value
2018-07-23T00:01:28.491Z,66.00
2018-07-23T00:04:02.710Z,66.00
2018-07-23T00:06:36.805Z,66.10
2018-07-23T00:09:13.766Z,66.10
2018-07-23T00:11:47.449Z,65.80
2018-07-23T00:16:54.390Z,64.90
2018-07-23T00:19:28.522Z,64.90
2018-07-23T00:22:02.066Z,65.10
2018-07-23T00:24:36.147Z,65.30
2018-07-23T00:27:10.227Z,65.40
2018-07-23T00:32:16.671Z,65.30
2018-07-23T00:34:50.646Z,65.10
2018-07-23T00:37:24.915Z,65.20
2018-07-23T00:39:58.630Z,65.20
2018-07-23T00:45:04.602Z,65.50
2018-07-23T00:47:38.624Z,65.70
2018-07-23T00:52:44.438Z,65.50
2018-07-23T00:55:18.381Z,65.30
2018-07-23T00:57:51.872Z,65.10
2018-07-23T01:00:25.807Z,65.00
2018-07-23T01:03:03.174Z,65.00
2018-07-23T01:05:39.073Z,65.00
2018-07-23T01:10:45.147Z,65.00
2018-07-23T01:13:20.135Z,65.00
2018-07-23T01:15:55.662Z,65.10
2018-07-23T01:18:29.281Z,65.00
2018-07-23T01:21:03.717Z,64.70
2018-07-23T01:23:37.460Z,64.60
2018-07-23T01:26:11.698Z,64.10
2018-07-23T01:28:45.609Z,64.70
2018-07-23T01:31:19.308Z,64.60
2018-07-23T01:56:08.684Z,64.60
2018-07-23T01:58:42.011Z,64.70
2018-07-23T02:01:16.307Z,66.50
2018-07-23T02:03:49.971Z,66.60
2018-07-23T02:08:56.484Z,66.80
2018-07-23T02:11:30.196Z,66.50
2018-07-23T02:14:04.192Z,65.60
2018-07-23T02:16:40.122Z,64.50
2018-07-23T02:19:14.170Z,63.90
2018-07-23T02:21:47.826Z,63.20
2018-07-23T02:24:21.502Z,62.40
2018-07-23T02:26:55.648Z,61.60
2018-07-23T02:32:01.750Z,60.80
2018-07-23T02:34:35.747Z,60.30
2018-07-23T02:37:09.799Z,60.00
2018-07-23T02:39:43.643Z,59.60
2018-07-23T02:42:17.486Z,59.50
2018-07-23T02:44:51.436Z,59.60
2018-07-23T02:47:25.303Z,59.60
2018-07-23T02:50:00.062Z,59.70
2018-07-23T02:52:34.128Z,59.00
2018-07-23T02:55:08.349Z,58.90
2018-07-23T03:00:14.329Z,59.10
2018-07-23T03:02:48.263Z,58.70
2018-07-23T03:05:22.795Z,58.60
2018-07-23T03:07:56.529Z,58.60
2018-07-23T03:10:31.017Z,57.70
2018-07-23T03:18:11.914Z,57.20
2018-07-23T03:20:45.375Z,57.90
2018-07-23T03:23:18.721Z,56.50
2018-07-23T03:25:52.580Z,56.50
2018-07-23T03:28:26.275Z,56.50
2018-07-23T03:31:00.140Z,56.60
2018-07-23T03:33:34.483Z,56.70
2018-07-23T03:36:09.599Z,56.60
2018-07-23T03:38:44.556Z,56.40
2018-07-23T03:41:18.567Z,56.30
2018-07-23T03:43:52.188Z,56.20
2018-07-23T03:46:26.089Z,55.90
2018-07-23T03:49:00.089Z,55.70
2018-07-23T03:51:34.732Z,56.60
2018-07-23T04:35:44.845Z,55.40
2018-07-23T04:40:52.558Z,56.60
2018-07-23T04:43:26.144Z,56.40
2018-07-23T04:46:00.161Z,56.20
2018-07-23T04:48:34.307Z,56.00
2018-07-23T04:51:08.904Z,55.60
2018-07-23T04:53:43.450Z,55.30
2018-07-23T04:56:17.659Z,55.60
2018-07-23T04:58:51.654Z,55.40
2018-07-23T05:01:27.017Z,55.40
2018-07-23T05:04:01.206Z,55.40
2018-07-23T05:06:35.260Z,55.60
2018-07-23T05:09:13.417Z,55.40
2018-07-23T05:11:47.945Z,54.80
2018-07-23T05:14:22.875Z,54.40
2018-07-23T05:16:57.494Z,54.30
2018-07-23T05:19:32.503Z,54.20
2018-07-23T05:22:05.964Z,54.20
2018-07-23T05:24:41.259Z,54.10
2018-07-23T05:27:15.764Z,54.00
2018-07-23T05:29:52.232Z,53.80
2018-07-23T05:32:37.997Z,53.50
2018-07-23T05:35:12.292Z,53.30
2018-07-23T05:37:46.530Z,53.40
2018-07-23T05:42:53.279Z,53.20
2018-07-23T05:45:27.418Z,52.70
2018-07-23T05:48:01.912Z,52.60
2018-07-23T05:50:35.759Z,52.40
2018-07-23T05:53:09.935Z,52.50
2018-07-23T05:55:44.436Z,52.10
2018-07-23T05:58:18.259Z,51.90
2018-07-23T06:00:52.211Z,51.90
2018-07-23T06:05:58.526Z,51.90
2018-07-23T06:08:32.980Z,51.80
2018-07-23T06:11:07.161Z,51.80
2018-07-23T06:13:41.957Z,51.90
2018-07-23T06:18:48.580Z,52.30
2018-07-23T06:23:55.302Z,52.30
2018-07-23T06:26:33.078Z,52.30
2018-07-23T06:29:07.361Z,52.40
2018-07-23T06:31:42.036Z,51.90
2018-07-23T06:34:17.246Z,51.50
2018-07-23T06:36:51.037Z,51.50
2018-07-23T06:39:25.273Z,51.60
2018-07-23T06:41:59.310Z,51.60
2018-07-23T06:44:38.342Z,51.60
2018-07-23T06:47:13.188Z,51.40
2018-07-23T06:49:47.458Z,51.00
2018-07-23T06:52:21.956Z,51.10
2018-07-23T06:54:57.262Z,51.40
2018-07-23T06:57:31.511Z,51.30
2018-07-23T07:00:06.275Z,51.30
2018-07-23T07:02:40.733Z,51.50
2018-07-23T07:05:15.282Z,51.40
2018-07-23T07:07:51.265Z,51.60
2018-07-23T07:10:25.568Z,51.60
2018-07-23T07:12:59.706Z,51.40
2018-07-23T07:15:33.863Z,51.70
2018-07-23T07:18:08.463Z,51.50
2018-07-23T07:20:43.063Z,51.30
2018-07-23T07:23:17.624Z,51.30
2018-07-23T07:25:52.058Z,51.50
2018-07-23T07:28:27.689Z,51.30
2018-07-23T07:31:01.784Z,51.10
2018-07-23T07:33:37.380Z,50.90
2018-07-23T07:36:11.546Z,50.70
2018-07-23T07:38:45.742Z,50.70
2018-07-23T07:41:20.098Z,50.50
2018-07-23T07:43:54.242Z,50.10
2018-07-23T07:46:28.965Z,50.00
2018-07-23T07:49:03.484Z,49.80
2018-07-23T07:51:37.867Z,49.50
2018-07-23T07:54:11.919Z,49.70
2018-07-23T07:56:45.904Z,50.30
2018-07-23T07:59:20.232Z,50.80
2018-07-23T08:01:54.471Z,51.00
2018-07-23T08:04:29.210Z,50.80
2018-07-23T08:09:37.256Z,51.00
2018-07-23T08:12:11.947Z,51.30
2018-07-23T08:14:47.023Z,51.80
2018-07-23T08:17:21.446Z,51.10
2018-07-23T08:19:58.661Z,50.90
2018-07-23T08:22:52.439Z,50.90
2018-07-23T08:25:38.759Z,50.90
2018-07-23T08:28:12.937Z,51.00
2018-07-23T08:30:48.905Z,50.90
2018-07-23T08:35:57.403Z,50.90
2018-07-23T08:38:31.490Z,50.90
2018-07-23T08:41:07.402Z,50.60
2018-07-23T08:43:41.822Z,50.60
2018-07-23T08:48:49.284Z,50.40
2018-07-23T08:51:23.581Z,50.40
2018-07-23T08:53:57.943Z,50.50
2018-07-23T08:56:32.747Z,50.50
2018-07-23T08:59:06.705Z,50.60
2018-07-23T09:01:41.600Z,50.60
2018-07-23T09:06:47.906Z,50.40
2018-07-23T09:09:21.848Z,50.50
2018-07-23T09:11:55.595Z,50.30
2018-07-23T09:14:29.703Z,50.20
2018-07-23T09:17:03.796Z,50.20
2018-07-23T09:22:11.140Z,50.30
2018-07-23T09:24:45.705Z,50.40
2018-07-23T09:27:20.342Z,50.30
2018-07-23T09:29:54.632Z,50.40
2018-07-23T09:32:30.418Z,51.40
2018-07-23T09:35:04.525Z,50.70
2018-07-23T09:37:39.174Z,50.90
2018-07-23T09:40:17.946Z,51.20
2018-07-23T09:42:52.254Z,51.40
2018-07-23T09:45:26.225Z,51.50
2018-07-23T09:48:00.935Z,51.30
2018-07-23T09:50:36.458Z,51.50
2018-07-23T09:53:11.271Z,51.70
2018-07-23T09:56:22.096Z,51.70
2018-07-23T10:37:58.237Z,51.80
2018-07-23T10:40:35.564Z,51.70
2018-07-23T10:43:09.807Z,54.10
2018-07-23T10:45:44.025Z,54.40
2018-07-23T10:56:12.157Z,54.40
2018-07-23T10:58:46.503Z,54.40
2018-07-23T11:01:20.742Z,54.70
2018-07-23T11:03:55.829Z,54.90
2018-07-23T11:06:30.005Z,54.60
2018-07-23T11:09:04.662Z,55.10
2018-07-23T11:11:39.101Z,55.70
2018-07-23T11:14:13.487Z,55.10
2018-07-23T11:16:47.026Z,55.10
2018-07-23T11:19:21.158Z,55.10
2018-07-23T11:21:55.355Z,55.10
2018-07-23T11:24:29.600Z,55.10
2018-07-23T11:27:03.843Z,55.00
2018-07-23T11:32:10.499Z,55.20
2018-07-23T11:34:44.613Z,55.20
2018-07-23T11:37:19.243Z,55.20
2018-07-23T11:39:54.875Z,55.30
2018-07-23T11:42:30.860Z,55.40
2018-07-23T11:45:04.865Z,55.40
2018-07-23T11:47:38.923Z,55.50
2018-07-23T11:50:14.520Z,55.60
2018-07-23T11:52:52.623Z,55.80
2018-07-23T11:55:26.516Z,56.00
2018-07-23T11:58:01.857Z,56.10
2018-07-23T12:00:35.823Z,56.30
2018-07-23T12:03:10.026Z,56.80
2018-07-23T12:05:44.433Z,56.60
2018-07-23T12:08:17.998Z,56.80
2018-07-23T12:10:52.014Z,57.00
2018-07-23T12:13:26.153Z,56.90
2018-07-23T12:16:00.409Z,57.10
2018-07-23T12:18:34.754Z,57.10
2018-07-23T12:21:08.550Z,57.10
2018-07-23T12:23:42.731Z,57.10
2018-07-23T12:31:22.492Z,57.00
2018-07-23T12:33:56.739Z,57.00
2018-07-23T12:36:32.260Z,56.90
2018-07-23T12:39:08.001Z,57.00
2018-07-23T12:56:12.538Z,57.00
2018-07-23T12:58:46.616Z,57.00
2018-07-23T13:01:21.138Z,58.50
2018-07-23T13:03:54.958Z,58.80
2018-07-23T13:06:29.202Z,59.20
2018-07-23T13:09:03.284Z,59.10
2018-07-23T13:11:37.649Z,58.90
2018-07-23T13:14:13.357Z,58.80
2018-07-23T13:16:47.320Z,58.80
2018-07-23T13:19:21.283Z,58.60
2018-07-23T13:21:55.207Z,58.50
2018-07-23T13:24:29.782Z,58.50
2018-07-23T13:27:03.421Z,58.40
2018-07-23T13:29:38.110Z,58.20
2018-07-23T13:32:12.067Z,58.20
2018-07-23T13:34:45.924Z,58.40
2018-07-23T13:39:51.971Z,58.30
2018-07-23T13:42:26.695Z,58.20
2018-07-23T13:45:00.893Z,58.30
2018-07-23T13:47:34.789Z,58.20
2018-07-23T13:50:09.159Z,58.30
2018-07-23T13:52:43.346Z,58.40
2018-07-23T13:55:17.076Z,58.50
2018-07-23T13:57:53.978Z,58.50
2018-07-23T14:03:01.741Z,58.50
2018-07-23T14:05:37.454Z,58.50
2018-07-23T14:08:11.756Z,58.60
2018-07-23T14:10:45.872Z,58.70
2018-07-23T14:15:52.573Z,58.80
2018-07-23T14:18:26.849Z,58.80
2018-07-23T14:21:01.035Z,58.90
2018-07-23T14:23:35.064Z,58.80
2018-07-23T14:28:42.260Z,58.80
2018-07-23T14:31:16.520Z,58.80
2018-07-23T14:33:50.720Z,58.80
2018-07-23T14:36:25.869Z,58.80
2018-07-23T14:38:59.878Z,58.90
2018-07-23T14:41:34.224Z,59.00
2018-07-23T14:46:41.509Z,59.20
2018-07-23T14:51:48.488Z,59.70
2018-07-23T14:54:22.554Z,59.60
2018-07-23T14:56:56.848Z,59.60
2018-07-23T15:02:07.124Z,59.60
2018-07-23T15:04:41.147Z,59.70
2018-07-23T15:07:15.327Z,59.80
2018-07-23T15:09:49.677Z,60.00
2018-07-23T15:12:23.722Z,60.20
2018-07-23T15:14:58.097Z,60.40
2018-07-23T15:20:04.788Z,60.80
2018-07-23T15:22:38.601Z,60.90
2018-07-23T15:25:13.717Z,61.00
2018-07-23T15:27:48.003Z,61.20
2018-07-23T15:30:22.167Z,61.20
2018-07-23T15:35:29.058Z,61.30
2018-07-23T15:38:03.577Z,61.70
2018-07-23T15:40:38.318Z,62.40
2018-07-23T15:43:12.488Z,61.40
2018-07-23T15:45:46.950Z,61.30
2018-07-23T15:48:21.691Z,61.40
2018-07-23T15:50:56.111Z,61.40
2018-07-23T15:53:30.482Z,61.50
2018-07-23T15:56:04.521Z,62.10
2018-07-23T15:58:39.429Z,62.50
2018-07-23T16:01:14.416Z,61.80
2018-07-23T16:06:21.872Z,62.50
2018-07-23T16:08:56.318Z,62.60
2018-07-23T16:11:30.521Z,62.70
2018-07-23T16:14:04.828Z,62.70
2018-07-23T16:16:41.027Z,62.00
2018-07-23T16:19:15.059Z,62.30
2018-07-23T16:21:49.154Z,62.10
2018-07-23T16:24:22.966Z,61.90
2018-07-23T16:26:56.831Z,61.90
2018-07-23T16:29:31.091Z,61.70
2018-07-23T16:37:11.469Z,62.10
2018-07-23T16:39:45.861Z,62.20
2018-07-23T16:42:21.257Z,63.10
2018-07-23T16:44:55.372Z,62.20
2018-07-23T16:47:29.694Z,62.30
2018-07-23T16:50:04.321Z,62.00
2018-07-23T16:55:12.216Z,61.50
2018-07-23T16:57:46.776Z,61.10
2018-07-23T17:00:21.917Z,61.00
2018-07-23T17:02:58.132Z,61.20
2018-07-23T17:05:32.842Z,61.10
2018-07-23T17:08:06.957Z,60.80
2018-07-23T17:10:41.234Z,60.70
2018-07-23T17:13:15.692Z,60.80
2018-07-23T17:15:50.227Z,60.90
2018-07-23T17:18:24.359Z,60.90
2018-07-23T17:20:58.513Z,60.90
2018-07-23T17:23:32.766Z,60.70
2018-07-23T17:26:07.054Z,60.90
2018-07-23T17:28:41.657Z,61.20
2018-07-23T17:31:16.108Z,61.20
2018-07-23T17:33:50.767Z,61.00
2018-07-23T17:36:25.109Z,61.00
2018-07-23T17:39:00.260Z,61.10
2018-07-23T17:41:34.469Z,61.10
2018-07-23T17:44:08.503Z,60.90
2018-07-23T17:46:42.910Z,61.00
2018-07-23T17:49:17.149Z,61.00
2018-07-23T17:51:51.050Z,61.00
2018-07-23T17:54:25.213Z,60.90
2018-07-23T17:56:59.656Z,60.90
2018-07-23T17:59:33.938Z,60.90
2018-07-23T18:02:08.561Z,60.90
2018-07-23T18:04:43.764Z,60.60
2018-07-23T18:07:19.656Z,60.40
2018-07-23T18:09:53.726Z,60.50
2018-07-23T18:12:27.864Z,60.60
2018-07-23T18:15:02.129Z,60.60
2018-07-23T18:20:09.551Z,60.50
2018-07-23T18:22:43.733Z,60.50
2018-07-23T18:25:18.318Z,60.50
2018-07-23T18:27:52.634Z,60.50
2018-07-23T18:30:27.669Z,60.60
2018-07-23T18:33:01.675Z,60.60
2018-07-23T18:35:35.557Z,60.60
2018-07-23T18:38:09.955Z,60.50
2018-07-23T18:43:17.597Z,60.60
2018-07-23T18:49:34.522Z,60.40
2018-07-23T18:52:08.495Z,60.40
2018-07-23T18:57:17.636Z,60.30
2018-07-23T19:02:25.292Z,59.70
2018-07-23T19:05:00.713Z,60.40
2018-07-23T19:07:34.892Z,60.50
2018-07-23T19:10:11.465Z,60.20
2018-07-23T19:12:45.897Z,60.20
2018-07-23T19:15:20.035Z,60.40
2018-07-23T19:17:54.226Z,60.50
2018-07-23T19:20:28.977Z,60.60
2018-07-23T19:23:03.086Z,60.60
2018-07-23T19:25:37.245Z,60.60
2018-07-23T19:28:12.860Z,60.70
2018-07-23T19:33:24.469Z,61.00
2018-07-23T19:35:58.635Z,61.20
2018-07-23T19:38:32.818Z,61.70
2018-07-23T19:41:07.035Z,62.50
2018-07-23T19:43:49.190Z,62.70
2018-07-23T19:46:23.767Z,62.90
2018-07-23T19:48:57.856Z,63.20
2018-07-23T19:51:36.820Z,63.10
2018-07-23T19:54:11.708Z,62.90
2018-07-23T19:56:46.145Z,62.80
2018-07-23T19:59:20.076Z,62.60
2018-07-23T20:01:54.488Z,63.20
2018-07-23T20:04:28.449Z,62.00
2018-07-23T20:07:02.973Z,61.50
2018-07-23T20:09:37.139Z,61.40
2018-07-23T20:12:11.585Z,61.50
2018-07-23T20:14:46.234Z,61.60
2018-07-23T20:17:23.313Z,61.80
2018-07-23T20:22:29.950Z,62.20
2018-07-23T20:25:04.711Z,62.20
2018-07-23T20:30:17.529Z,62.30
2018-07-23T20:32:51.683Z,62.00
2018-07-23T20:37:59.254Z,61.70
2018-07-23T20:40:33.787Z,61.60
2018-07-23T20:43:07.864Z,61.60
2018-07-23T20:45:42.023Z,61.30
2018-07-23T20:48:16.729Z,61.20
2018-07-23T20:50:50.974Z,61.20
2018-07-23T20:53:25.275Z,61.20
2018-07-23T20:55:59.537Z,61.20
2018-07-23T20:58:33.806Z,61.30
2018-07-23T21:01:08.029Z,61.40
2018-07-23T21:49:14.462Z,61.50
2018-07-23T21:54:20.899Z,66.90
2018-07-23T21:56:55.229Z,67.10
2018-07-23T21:59:29.224Z,67.50
2018-07-23T22:02:03.415Z,67.60
2018-07-23T22:04:38.100Z,67.70
2018-07-23T22:07:12.257Z,67.40
2018-07-23T22:09:46.470Z,67.10
2018-07-23T22:12:21.582Z,66.80
2018-07-23T22:17:29.315Z,66.40
2018-07-23T22:20:03.679Z,67.30
2018-07-23T22:22:38.155Z,66.50
2018-07-23T22:25:12.213Z,66.50
2018-07-23T22:27:48.916Z,66.40
2018-07-23T22:30:23.329Z,66.10
2018-07-23T22:32:57.525Z,65.80
2018-07-23T22:35:31.990Z,65.60
2018-07-23T22:40:38.902Z,65.30
2018-07-23T22:43:12.594Z,64.80
2018-07-23T22:45:46.993Z,64.90
2018-07-23T22:48:21.428Z,64.90
2018-07-23T22:50:55.539Z,64.90
2018-07-23T22:53:29.430Z,65.10
2018-07-23T22:56:03.919Z,65.10
2018-07-23T22:58:37.980Z,64.80
2018-07-23T23:01:12.433Z,64.60
2018-07-23T23:03:46.574Z,64.40
2018-07-23T23:06:21.222Z,64.30
2018-07-23T23:08:55.254Z,64.20
2018-07-23T23:11:29.528Z,64.10
2018-07-23T23:14:03.503Z,64.10
2018-07-23T23:16:37.710Z,64.30
2018-07-23T23:19:12.036Z,64.40
2018-07-23T23:24:19.245Z,64.30
2018-07-23T23:26:53.122Z,64.40
2018-07-23T23:29:30.557Z,64.50
2018-07-23T23:32:04.712Z,64.70
2018-07-23T23:34:39.241Z,64.90
2018-07-23T23:37:13.706Z,65.70
2018-07-23T23:39:49.585Z,64.80
2018-07-23T23:42:23.438Z,64.60
2018-07-23T23:44:58.472Z,64.50
2018-07-23T23:56:12.613Z,64.50
2018-07-23T23:58:46.470Z,64.50
